Terminal Aerodrome Forecast
Issued by NWS

Home | Current Version | Previous Version | Text Only | Print | Product List | Glossary On
Versions: 1 2 3 4 5 6 7 8 9 10 11 12 13 14 15 16 17 18 19 20 21 22 23 24
000
FTUS43 KGRB 112335
TAFAUW
TAF
KAUW 112335Z 1200/1224 33012G19KT P6SM -SHSN OVC015
     FM120500 33013G21KT P6SM -SHSN BKN022
     FM120800 32011G19KT P6SM BKN021
     FM121000 31010G18KT P6SM SCT060
     FM121600 32010G17KT P6SM SCT250
     FM122200 31008KT P6SM SCT080=

USA.gov is the U.S. government's official web portal to all federal, state and local government web resources and services.